Time;durP1;ratioP1;P1;durP2;ratioP2;P2;SDS_P1;SDS_P2;PMS_P1;PMS_P2;Temp;Humidity;BMP_temperature;BMP_pressure;BME280_temperature;BME280_humidity;BME280_pressure;Samples;Min_cycle;Max_cycle;Signal;HPM_P1;HPM_P2
2023/08/02 00:00:04;;;;;;;2.00;1.80;;;;;;;15.08;89.19;96128.11;105337;1257;97056;-82
2023/08/02 00:02:30;;;;;;;2.70;2.10;;;;;;;15.12;89.26;96126.15;105475;1254;95899;-81
2023/08/02 00:04:57;;;;;;;3.20;2.00;;;;;;;15.14;89.06;96125.12;105483;1258;100596;-81
2023/08/02 00:07:23;;;;;;;3.10;2.40;;;;;;;15.14;89.22;96122.84;105502;1256;96158;-82
2023/08/02 00:09:49;;;;;;;2.60;1.80;;;;;;;15.13;89.20;96124.70;105536;1268;96811;-82
2023/08/02 00:12:16;;;;;;;3.20;2.30;;;;;;;15.13;89.27;96129.47;105735;1257;96264;-82
2023/08/02 00:14:42;;;;;;;2.40;2.20;;;;;;;15.12;89.33;96128.59;105454;1266;108318;-82
2023/08/02 00:17:08;;;;;;;3.80;2.30;;;;;;;15.12;89.32;96132.61;105369;1259;95870;-81
2023/08/02 00:19:36;;;;;;;2.90;2.00;;;;;;;15.11;89.29;96127.84;105231;1254;96767;-82
2023/08/02 00:22:02;;;;;;;4.40;2.10;;;;;;;15.08;89.31;96121.59;105198;1257;95931;-81
2023/08/02 00:24:28;;;;;;;4.00;2.10;;;;;;;15.08;89.45;96121.05;105827;1256;96785;-81
2023/08/02 00:26:55;;;;;;;2.50;2.30;;;;;;;15.07;89.44;96120.52;105659;1254;96802;-80
2023/08/02 00:29:21;;;;;;;3.00;2.00;;;;;;;15.08;89.51;96125.50;105431;1256;95911;-79
2023/08/02 00:31:47;;;;;;;3.40;2.20;;;;;;;15.11;89.61;96133.27;105360;1266;96619;-80
2023/08/02 00:34:14;;;;;;;2.80;2.00;;;;;;;15.12;89.65;96130.77;105050;1260;95848;-80
2023/08/02 00:36:40;;;;;;;7.10;2.80;;;;;;;15.10;89.61;96123.81;105256;1258;95879;-80
2023/08/02 00:39:07;;;;;;;3.70;2.40;;;;;;;15.12;89.69;96122.45;105302;1254;95912;-79
2023/08/02 00:42:02;;;;;;;2.90;2.40;;;;;;;15.13;89.68;96116.54;105046;1257;95831;-79
2023/08/02 00:44:34;;;;;;;3.00;2.20;;;;;;;15.13;89.79;96128.44;105047;1257;102104;-79
2023/08/02 00:47:00;;;;;;;4.10;2.20;;;;;;;15.14;89.66;96142.68;105157;1254;96677;-79
2023/08/02 00:49:27;;;;;;;5.00;2.00;;;;;;;15.11;89.47;96143.48;105195;1256;96129;-79
2023/08/02 00:51:53;;;;;;;2.30;2.00;;;;;;;15.11;89.55;96141.36;105091;1254;95740;-79
2023/08/02 00:54:19;;;;;;;4.60;2.00;;;;;;;15.10;89.47;96144.63;105133;1254;102207;-79
2023/08/02 00:56:46;;;;;;;3.10;2.10;;;;;;;15.05;89.42;96146.16;105290;1273;96532;-79
2023/08/02 00:59:13;;;;;;;4.00;2.30;;;;;;;15.03;89.49;96146.80;105392;1254;96553;-80
2023/08/02 01:01:39;;;;;;;2.10;1.90;;;;;;;15.02;89.53;96152.29;105170;1256;95894;-80
2023/08/02 01:04:05;;;;;;;5.00;1.90;;;;;;;14.98;89.39;96157.44;104989;1269;102219;-80
2023/08/02 01:06:54;;;;;;;3.40;2.00;;;;;;;14.95;89.64;96155.81;105378;1257;96652;-80
2023/08/02 01:09:28;;;;;;;2.60;2.30;;;;;;;14.92;89.58;96149.56;105248;1259;95730;-80
2023/08/02 01:12:01;;;;;;;3.20;2.20;;;;;;;14.95;89.75;96149.89;105143;1259;96043;-80
2023/08/02 01:14:30;;;;;;;3.60;2.10;;;;;;;14.97;89.88;96145.33;105168;1255;101717;-80
2023/08/02 01:16:57;;;;;;;3.80;2.20;;;;;;;14.99;89.82;96139.23;105147;1257;102143;-80
2023/08/02 01:19:25;;;;;;;4.00;3.10;;;;;;;15.01;89.82;96137.72;104901;1256;100620;-80
2023/08/02 01:21:51;;;;;;;6.10;2.40;;;;;;;15.01;89.80;96137.17;105141;1257;95838;-80
2023/08/02 01:24:18;;;;;;;5.00;2.30;;;;;;;15.02;89.84;96140.81;105101;1256;95854;-80
2023/08/02 02:03:49;;;;;;;2.30;2.10;;;;;;;15.47;88.57;96162.45;105174;1260;642557;-86
2023/08/02 02:06:16;;;;;;;2.60;2.10;;;;;;;15.53;88.51;96163.30;106866;1250;139350;-81
2023/08/02 02:08:42;;;;;;;4.00;2.20;;;;;;;15.43;88.48;96163.85;107153;1250;96954;-82
2023/08/02 02:37:51;;;;;;;4.00;2.20;;;;;;;15.23;89.16;96188.20;102035;1296;642058;-79
2023/08/02 02:40:18;;;;;;;6.80;2.70;;;;;;;15.13;89.08;96187.09;105242;1269;95856;-81
2023/08/02 02:42:44;;;;;;;3.30;2.80;;;;;;;15.08;89.25;96183.40;105221;1260;95865;-81
2023/08/02 02:45:11;;;;;;;4.60;2.60;;;;;;;15.05;89.46;96189.48;105219;1260;95840;-81
2023/08/02 02:47:37;;;;;;;3.70;2.70;;;;;;;15.01;89.42;96187.23;105094;1271;97184;-81
2023/08/02 02:50:04;;;;;;;3.80;2.40;;;;;;;14.96;89.57;96190.55;105021;1270;271471;-81
2023/08/02 02:52:30;;;;;;;5.10;2.50;;;;;;;14.92;89.59;96191.02;105364;1257;97231;-81
2023/08/02 02:59:57;;;;;;;4.70;2.40;;;;;;;14.95;89.52;96196.68;102105;1295;635765;-79
2023/08/02 03:02:25;;;;;;;4.40;2.70;;;;;;;14.92;89.56;96197.86;105037;1269;95854;-79
2023/08/02 03:04:53;;;;;;;4.20;2.30;;;;;;;14.87;89.48;96198.66;104905;1267;96772;-81
2023/08/02 03:07:20;;;;;;;2.60;2.10;;;;;;;14.80;89.49;96198.60;105161;1260;100175;-81
2023/08/02 03:09:48;;;;;;;4.00;2.30;;;;;;;14.76;89.53;96202.92;105071;1270;108236;-81
2023/08/02 03:12:16;;;;;;;6.90;2.50;;;;;;;14.73;89.42;96204.71;105176;1259;100685;-81
2023/08/02 03:14:43;;;;;;;3.80;2.40;;;;;;;14.70;89.53;96211.23;105163;1257;179454;-81
2023/08/02 03:17:11;;;;;;;5.20;2.60;;;;;;;14.69;89.60;96211.49;105183;1257;97161;-81
2023/08/02 03:19:38;;;;;;;5.50;2.90;;;;;;;14.72;89.77;96214.39;105214;1266;100231;-81
2023/08/02 03:22:06;;;;;;;7.60;3.20;;;;;;;14.72;89.73;96220.85;105155;1257;102119;-81
2023/08/02 03:24:34;;;;;;;5.10;2.80;;;;;;;14.72;89.68;96227.20;105138;1254;100933;-80
2023/08/02 03:27:02;;;;;;;4.90;3.00;;;;;;;14.73;89.70;96229.31;105103;1254;96739;-80
2023/08/02 03:29:30;;;;;;;5.70;3.00;;;;;;;14.74;89.57;96224.69;105417;1257;96935;-81
2023/08/02 03:31:57;;;;;;;4.80;3.20;;;;;;;14.73;89.56;96225.56;105138;1256;101571;-81
2023/08/02 03:34:25;;;;;;;8.80;3.70;;;;;;;14.71;89.62;96227.16;105202;1255;102390;-81
2023/08/02 03:36:53;;;;;;;4.80;3.10;;;;;;;14.69;89.76;96227.52;105156;1258;107198;-81
2023/08/02 03:39:20;;;;;;;5.40;3.50;;;;;;;14.68;89.84;96233.11;105381;1257;97017;-81
2023/08/02 03:41:48;;;;;;;8.70;3.70;;;;;;;14.69;90.02;96236.86;105072;1256;96231;-81
2023/08/02 03:44:16;;;;;;;5.30;3.20;;;;;;;14.71;89.92;96241.00;105252;1276;101700;-81
2023/08/02 03:46:43;;;;;;;4.30;3.10;;;;;;;14.70;89.95;96233.33;105364;1267;102205;-81
2023/08/02 03:49:11;;;;;;;6.10;3.10;;;;;;;14.67;89.95;96229.14;105150;1258;100594;-81
2023/08/02 03:51:39;;;;;;;3.20;2.90;;;;;;;14.63;90.03;96231.98;105281;1267;95889;-80
2023/08/02 03:54:07;;;;;;;4.50;2.90;;;;;;;14.64;90.27;96233.13;105455;1257;97056;-80
2023/08/02 03:56:34;;;;;;;4.00;2.90;;;;;;;14.67;90.34;96235.23;105251;1257;101615;-81
2023/08/02 03:59:02;;;;;;;5.00;2.90;;;;;;;14.68;90.32;96239.80;105327;1261;111346;-81
2023/08/02 04:01:30;;;;;;;4.00;3.10;;;;;;;14.70;90.38;96238.89;105184;1268;109505;-81
2023/08/02 04:03:57;;;;;;;4.00;2.90;;;;;;;14.71;90.36;96240.08;105112;1268;96145;-81
2023/08/02 04:06:25;;;;;;;6.50;2.80;;;;;;;14.74;90.57;96239.64;105434;1266;96618;-81
2023/08/02 04:08:53;;;;;;;3.30;2.80;;;;;;;14.78;90.69;96241.02;105462;1258;101605;-80
2023/08/02 04:11:21;;;;;;;3.60;3.00;;;;;;;14.82;90.77;96238.55;105422;1257;102101;-81
2023/08/02 04:13:50;;;;;;;6.40;2.80;;;;;;;14.84;90.73;96234.91;105166;1256;109814;-81
2023/08/02 04:16:18;;;;;;;3.80;2.40;;;;;;;14.83;90.81;96231.77;105157;1264;96680;-81
2023/08/02 04:18:46;;;;;;;4.50;3.00;;;;;;;14.86;90.93;96233.27;105157;1258;97174;-81
2023/08/02 04:21:20;;;;;;;6.40;3.90;;;;;;;14.90;91.07;96236.71;105103;1257;101536;-81
2023/08/02 04:23:50;;;;;;;10.40;4.50;;;;;;;14.96;91.20;96240.10;104856;1276;103162;-80
2023/08/02 04:26:18;;;;;;;4.30;3.60;;;;;;;15.01;91.15;96242.73;104924;1270;101780;-81
2023/08/02 04:28:47;;;;;;;5.00;3.50;;;;;;;15.05;91.08;96243.55;104956;1253;96043;-80
2023/08/02 04:31:15;;;;;;;4.40;3.60;;;;;;;15.10;91.29;96241.60;105241;1254;97165;-80
2023/08/02 04:33:43;;;;;;;4.00;3.60;;;;;;;15.14;91.35;96241.73;104981;1254;101445;-81
2023/08/02 04:36:11;;;;;;;4.80;3.40;;;;;;;15.18;91.23;96241.42;105179;1256;108202;-81
2023/08/02 04:38:38;;;;;;;5.10;3.40;;;;;;;15.22;91.16;96245.38;105195;1265;100745;-80
2023/08/02 04:41:06;;;;;;;5.10;4.00;;;;;;;15.28;91.33;96239.69;105204;1255;95832;-81
2023/08/02 04:43:34;;;;;;;6.30;3.40;;;;;;;15.31;91.56;96241.66;105169;1255;96113;-81
2023/08/02 04:46:01;;;;;;;5.30;4.10;;;;;;;15.35;91.70;96249.21;105244;1254;101572;-81
2023/08/02 04:48:29;;;;;;;7.10;4.50;;;;;;;15.41;91.61;96249.13;105194;1267;102486;-80
2023/08/02 04:50:57;;;;;;;5.60;4.10;;;;;;;15.46;91.42;96252.70;105207;1258;100858;-80
2023/08/02 04:53:24;;;;;;;6.80;3.80;;;;;;;15.51;91.39;96249.35;105199;1254;95841;-80
2023/08/02 04:55:52;;;;;;;5.10;4.00;;;;;;;15.55;91.32;96245.95;105264;1257;96725;-80
2023/08/02 04:58:19;;;;;;;4.60;3.60;;;;;;;15.59;91.24;96252.10;105266;1254;101706;-81
2023/08/02 05:00:47;;;;;;;5.40;3.30;;;;;;;15.60;90.98;96257.86;105249;1253;102493;-81
2023/08/02 05:03:15;;;;;;;5.30;3.50;;;;;;;15.63;90.73;96259.77;105220;1258;100642;-81
2023/08/02 05:05:43;;;;;;;4.80;3.00;;;;;;;15.66;90.78;96253.42;105175;1254;96810;-81
2023/08/02 05:08:10;;;;;;;3.40;3.10;;;;;;;15.71;90.95;96254.61;105253;1257;95905;-80
2023/08/02 05:10:38;;;;;;;3.80;3.00;;;;;;;15.77;90.99;96252.89;105246;1265;101601;-80
2023/08/02 05:13:06;;;;;;;3.80;3.00;;;;;;;15.80;90.63;96256.09;105424;1257;102267;-80
2023/08/02 05:15:37;;;;;;;6.20;3.30;;;;;;;15.84;90.60;96262.50;105742;1257;100635;-80
2023/08/02 05:18:05;;;;;;;4.00;3.40;;;;;;;15.90;90.74;96262.80;105661;1256;96283;-80
2023/08/02 05:20:34;;;;;;;3.50;2.90;;;;;;;15.95;90.69;96268.38;105710;1257;95931;-81
2023/08/02 05:23:01;;;;;;;2.90;2.60;;;;;;;16.00;90.35;96277.15;105772;1255;107746;-80
2023/08/02 05:25:34;;;;;;;3.60;3.10;;;;;;;16.04;90.10;96278.35;105912;1256;102156;-81
2023/08/02 05:28:02;;;;;;;3.20;2.80;;;;;;;16.07;89.62;96275.89;108700;1252;108808;-81
2023/08/02 05:30:32;;;;;;;5.00;2.70;;;;;;;16.14;89.33;96273.11;108243;1254;95771;-81
2023/08/02 05:32:59;;;;;;;4.70;3.10;;;;;;;16.22;89.02;96273.38;105154;1259;95886;-80
2023/08/02 05:35:29;;;;;;;5.30;3.00;;;;;;;16.27;88.58;96268.96;105182;1257;110485;-81
2023/08/02 05:37:57;;;;;;;3.30;2.60;;;;;;;16.31;88.28;96268.61;105249;1257;102070;-80
2023/08/02 05:40:25;;;;;;;3.30;2.80;;;;;;;16.34;87.99;96267.26;105198;1275;100725;-80
2023/08/02 05:42:53;;;;;;;3.70;2.90;;;;;;;16.39;87.82;96269.77;105350;1256;96076;-81
2023/08/02 05:45:20;;;;;;;4.10;3.00;;;;;;;16.43;87.70;96272.09;105469;1256;95918;-80
2023/08/02 05:47:50;;;;;;;3.20;2.60;;;;;;;16.46;87.28;96273.77;105200;1257;101642;-80
2023/08/02 05:50:18;;;;;;;3.40;2.70;;;;;;;16.48;87.09;96275.50;104946;1254;101992;-80
2023/08/02 05:52:46;;;;;;;5.20;2.70;;;;;;;16.51;87.10;96271.42;105211;1265;100823;-80
2023/08/02 05:55:14;;;;;;;3.30;2.70;;;;;;;16.54;86.78;96269.50;105212;1257;96017;-80
2023/08/02 05:57:42;;;;;;;4.40;3.00;;;;;;;16.57;86.51;96275.31;104976;1254;96867;-80
2023/08/02 06:00:10;;;;;;;3.90;2.80;;;;;;;16.60;86.32;96277.21;105410;1254;101641;-81
2023/08/02 06:02:38;;;;;;;4.20;2.60;;;;;;;16.65;86.19;96275.12;105362;1257;109337;-80
2023/08/02 06:05:07;;;;;;;4.80;2.40;;;;;;;16.69;85.87;96271.66;104849;1261;100608;-80
2023/08/02 06:07:34;;;;;;;5.10;2.70;;;;;;;16.73;85.50;96270.63;105243;1266;95868;-81
2023/08/02 06:10:02;;;;;;;3.20;2.90;;;;;;;16.78;85.36;96276.66;105236;1254;96273;-80
2023/08/02 06:12:30;;;;;;;4.60;2.70;;;;;;;16.81;84.95;96276.36;105365;1256;101653;-81
2023/08/02 06:14:57;;;;;;;4.00;2.70;;;;;;;16.88;84.94;96278.09;105174;1258;100341;-81
2023/08/02 06:17:26;;;;;;;4.10;3.10;;;;;;;16.95;84.95;96279.36;105214;1267;98555;-81
2023/08/02 06:19:54;;;;;;;4.20;2.60;;;;;;;17.01;84.86;96285.66;105351;1256;95969;-80
2023/08/02 06:22:22;;;;;;;3.40;2.60;;;;;;;17.05;84.63;96280.73;105378;1254;96749;-80
2023/08/02 06:24:50;;;;;;;5.90;3.00;;;;;;;17.09;84.39;96280.23;105196;1264;101541;-81
2023/08/02 06:27:17;;;;;;;3.30;3.00;;;;;;;17.11;83.95;96280.40;105198;1267;109946;-81
2023/08/02 06:29:45;;;;;;;4.80;3.00;;;;;;;17.12;83.93;96277.27;105195;1257;100912;-81
2023/08/02 06:32:13;;;;;;;3.70;2.90;;;;;;;17.19;84.14;96286.18;105209;1256;95841;-81
2023/08/02 06:34:40;;;;;;;5.70;3.20;;;;;;;17.29;84.10;96286.52;105196;1253;95891;-81
2023/08/02 06:37:08;;;;;;;4.90;2.60;;;;;;;17.38;83.91;96284.66;105208;1254;101580;-81
2023/08/02 06:39:36;;;;;;;3.80;2.90;;;;;;;17.47;83.60;96278.67;105262;1265;100284;-81
2023/08/02 06:42:03;;;;;;;4.00;2.50;;;;;;;17.58;83.36;96284.00;105310;1254;100793;-81
2023/08/02 06:44:32;;;;;;;4.10;2.70;;;;;;;17.72;83.17;96285.40;105458;1267;96817;-81
2023/08/02 06:47:00;;;;;;;3.30;2.90;;;;;;;17.87;82.95;96286.50;105526;1256;95840;-81
